sensor_id;sensor_type;location;lat;lon;timestamp;pressure;altitude;pressure_sealevel;temperature;humidity
56668;BME280;42542;48.360;10.958;2023-03-20T00:04:20;96309.25;;;9.43;91.85
56668;BME280;42542;48.360;10.958;2023-03-20T00:07:33;96313.91;;;9.41;91.72
56668;BME280;42542;48.360;10.958;2023-03-20T00:10:38;96312.38;;;9.38;92.13
56668;BME280;42542;48.360;10.958;2023-03-20T00:13:54;96320.22;;;9.40;92.33
56668;BME280;42542;48.360;10.958;2023-03-20T00:16:58;96322.06;;;9.39;91.61
56668;BME280;42542;48.360;10.958;2023-03-20T00:20:02;96324.88;;;9.38;91.78
56668;BME280;42542;48.360;10.958;2023-03-20T00:23:06;96323.88;;;9.39;91.67
56668;BME280;42542;48.360;10.958;2023-03-20T00:26:17;96324.03;;;9.37;92.35
56668;BME280;42542;48.360;10.958;2023-03-20T00:29:26;96332.03;;;9.37;92.35
56668;BME280;42542;48.360;10.958;2023-03-20T00:32:29;96317.84;;;9.37;92.19
56668;BME280;42542;48.360;10.958;2023-03-20T00:35:40;96317.00;;;9.36;92.19
56668;BME280;42542;48.360;10.958;2023-03-20T00:38:44;96325.00;;;9.36;93.16
56668;BME280;42542;48.360;10.958;2023-03-20T00:42:04;96327.84;;;9.35;93.43
56668;BME280;42542;48.360;10.958;2023-03-20T00:45:18;96324.34;;;9.34;93.40
56668;BME280;42542;48.360;10.958;2023-03-20T00:48:28;96323.50;;;9.34;92.65
56668;BME280;42542;48.360;10.958;2023-03-20T00:51:32;96322.66;;;9.33;92.95
56668;BME280;42542;48.360;10.958;2023-03-20T00:54:38;96320.28;;;9.30;92.70
56668;BME280;42542;48.360;10.958;2023-03-20T00:57:54;96328.16;;;9.32;93.05
56668;BME280;42542;48.360;10.958;2023-03-20T01:01:01;96328.28;;;9.30;93.21
56668;BME280;42542;48.360;10.958;2023-03-20T01:04:13;96320.47;;;9.29;93.13
56668;BME280;42542;48.360;10.958;2023-03-20T01:07:19;96320.28;;;9.30;92.35
56668;BME280;42542;48.360;10.958;2023-03-20T01:10:26;96319.44;;;9.30;93.15
56668;BME280;42542;48.360;10.958;2023-03-20T01:13:36;96320.47;;;9.29;93.04
56668;BME280;42542;48.360;10.958;2023-03-20T01:16:40;96322.28;;;9.28;93.23
56668;BME280;42542;48.360;10.958;2023-03-20T01:19:44;96316.13;;;9.28;93.48
56668;BME280;42542;48.360;10.958;2023-03-20T01:22:50;96315.28;;;9.27;93.35
56668;BME280;42542;48.360;10.958;2023-03-20T01:25:52;96312.75;;;9.26;93.96
56668;BME280;42542;48.360;10.958;2023-03-20T01:28:56;96315.56;;;9.24;93.82
56668;BME280;42542;48.360;10.958;2023-03-20T01:32:01;96314.72;;;9.24;93.38
56668;BME280;42542;48.360;10.958;2023-03-20T01:35:07;96312.19;;;9.22;93.99
56668;BME280;42542;48.360;10.958;2023-03-20T01:38:17;96304.38;;;9.21;93.90
56668;BME280;42542;48.360;10.958;2023-03-20T01:41:25;96310.69;;;9.20;93.92
56668;BME280;42542;48.360;10.958;2023-03-20T01:44:34;96307.34;;;9.18;93.64
56668;BME280;42542;48.360;10.958;2023-03-20T01:47:39;96303.31;;;9.14;93.25
56668;BME280;42542;48.360;10.958;2023-03-20T01:50:51;96310.59;;;9.12;94.13
56668;BME280;42542;48.360;10.958;2023-03-20T01:54:27;96309.06;;;9.09;93.29
56668;BME280;42542;48.360;10.958;2023-03-20T01:57:36;96308.41;;;9.07;93.39
56668;BME280;42542;48.360;10.958;2023-03-20T02:00:40;96304.91;;;9.07;93.01
56668;BME280;42542;48.360;10.958;2023-03-20T02:03:50;96313.88;;;9.06;93.39
56668;BME280;42542;48.360;10.958;2023-03-20T02:07:17;96310.50;;;9.04;93.99
56668;BME280;42542;48.360;10.958;2023-03-20T02:10:33;96305.31;;;9.02;93.55
56668;BME280;42542;48.360;10.958;2023-03-20T02:14:00;96302.81;;;9.00;94.17
56668;BME280;42542;48.360;10.958;2023-03-20T02:17:12;96303.13;;;8.97;94.41
56668;BME280;42542;48.360;10.958;2023-03-20T02:56:58;96330.56;;;8.80;95.24
56668;BME280;42542;48.360;10.958;2023-03-20T03:00:22;96329.06;;;8.78;94.94
56668;BME280;42542;48.360;10.958;2023-03-20T03:03:46;96336.22;;;8.77;94.59
56668;BME280;42542;48.360;10.958;2023-03-20T03:06:53;96334.53;;;8.76;94.48
56668;BME280;42542;48.360;10.958;2023-03-20T03:10:25;96341.81;;;8.74;93.95
56668;BME280;42542;48.360;10.958;2023-03-20T03:13:45;96337.47;;;8.73;93.75
56668;BME280;42542;48.360;10.958;2023-03-20T03:16:50;96340.13;;;8.73;93.02
56668;BME280;42542;48.360;10.958;2023-03-20T03:20:04;96342.94;;;8.72;92.80
56668;BME280;42542;48.360;10.958;2023-03-20T03:23:19;96339.47;;;8.71;92.88
56668;BME280;42542;48.360;10.958;2023-03-20T03:26:37;96343.97;;;8.71;92.23
56668;BME280;42542;48.360;10.958;2023-03-20T03:29:42;96351.25;;;8.69;91.94
56668;BME280;42542;48.360;10.958;2023-03-20T03:36:55;96342.88;;;8.64;91.53
56668;BME280;42542;48.360;10.958;2023-03-20T03:40:28;96362.38;;;8.64;91.20
56668;BME280;42542;48.360;10.958;2023-03-20T03:50:43;96368.41;;;8.56;90.57
56668;BME280;42542;48.360;10.958;2023-03-20T03:54:18;96364.34;;;8.52;90.89
56668;BME280;42542;48.360;10.958;2023-03-20T03:58:15;96359.47;;;8.48;91.39
56668;BME280;42542;48.360;10.958;2023-03-20T04:02:04;96360.59;;;8.45;90.83
56668;BME280;42542;48.360;10.958;2023-03-20T04:05:11;96364.22;;;8.44;90.63
56668;BME280;42542;48.360;10.958;2023-03-20T04:08:15;96364.53;;;8.41;90.90
56668;BME280;42542;48.360;10.958;2023-03-20T04:11:20;96361.31;;;8.38;90.95
56668;BME280;42542;48.360;10.958;2023-03-20T04:14:23;96369.44;;;8.36;90.60
56668;BME280;42542;48.360;10.958;2023-03-20T04:17:26;96370.59;;;8.34;91.13
56668;BME280;42542;48.360;10.958;2023-03-20T04:20:30;96383.19;;;8.32;91.37
56668;BME280;42542;48.360;10.958;2023-03-20T04:23:32;96383.31;;;8.30;90.85
56668;BME280;42542;48.360;10.958;2023-03-20T04:26:34;96377.31;;;8.28;91.56
56668;BME280;42542;48.360;10.958;2023-03-20T04:29:36;96384.72;;;8.24;91.38
56668;BME280;42542;48.360;10.958;2023-03-20T04:32:58;96392.00;;;8.22;91.60
56668;BME280;42542;48.360;10.958;2023-03-20T04:36:08;96395.81;;;8.20;91.63
56668;BME280;42542;48.360;10.958;2023-03-20T04:39:11;96390.22;;;8.13;91.35
56668;BME280;42542;48.360;10.958;2023-03-20T04:42:13;96394.00;;;8.11;91.99
56668;BME280;42542;48.360;10.958;2023-03-20T04:45:16;96399.59;;;8.08;91.77
56668;BME280;42542;48.360;10.958;2023-03-20T04:48:18;96399.19;;;8.03;92.12
56668;BME280;42542;48.360;10.958;2023-03-20T04:51:20;96400.19;;;8.02;92.07
56668;BME280;42542;48.360;10.958;2023-03-20T04:54:24;96394.31;;;7.98;92.07
56668;BME280;42542;48.360;10.958;2023-03-20T04:57:28;96391.78;;;7.97;92.10
56668;BME280;42542;48.360;10.958;2023-03-20T05:00:33;96398.34;;;7.93;92.04
56668;BME280;42542;48.360;10.958;2023-03-20T05:03:37;96397.38;;;7.94;92.36
56668;BME280;42542;48.360;10.958;2023-03-20T05:06:39;96404.69;;;7.92;92.29
56668;BME280;42542;48.360;10.958;2023-03-20T05:09:43;96405.78;;;7.89;92.91
56668;BME280;42542;48.360;10.958;2023-03-20T05:12:44;96414.63;;;7.90;92.39
56668;BME280;42542;48.360;10.958;2023-03-20T05:16:20;96414.63;;;7.90;92.96
56668;BME280;42542;48.360;10.958;2023-03-20T05:19:43;96417.28;;;7.90;92.93
56668;BME280;42542;48.360;10.958;2023-03-20T05:23:07;96424.44;;;7.89;92.76
56668;BME280;42542;48.360;10.958;2023-03-20T05:26:22;96418.41;;;7.87;93.35
56668;BME280;42542;48.360;10.958;2023-03-20T05:29:53;96428.19;;;7.87;93.16
56668;BME280;42542;48.360;10.958;2023-03-20T05:33:15;96428.38;;;7.85;92.80
56668;BME280;42542;48.360;10.958;2023-03-20T05:36:30;96430.19;;;7.84;93.48
56668;BME280;42542;48.360;10.958;2023-03-20T05:39:57;96435.22;;;7.88;92.96
56668;BME280;42542;48.360;10.958;2023-03-20T05:43:22;96429.47;;;7.82;93.58
56668;BME280;42542;48.360;10.958;2023-03-20T05:46:49;96433.69;;;7.85;93.36
56668;BME280;42542;48.360;10.958;2023-03-20T05:50:02;96442.34;;;7.87;93.40
56668;BME280;42542;48.360;10.958;2023-03-20T05:53:33;96441.38;;;7.88;93.61
56668;BME280;42542;48.360;10.958;2023-03-20T05:56:54;96455.53;;;7.89;93.47
56668;BME280;42542;48.360;10.958;2023-03-20T05:59:59;96457.22;;;7.90;93.18
56668;BME280;42542;48.360;10.958;2023-03-20T06:03:07;96454.41;;;7.91;93.80
56668;BME280;42542;48.360;10.958;2023-03-20T06:06:28;96450.59;;;7.94;93.60
56668;BME280;42542;48.360;10.958;2023-03-20T06:09:30;96446.00;;;7.96;93.54
56668;BME280;42542;48.360;10.958;2023-03-20T06:12:34;96446.69;;;7.98;93.62
56668;BME280;42542;48.360;10.958;2023-03-20T06:15:37;96452.56;;;8.01;94.04
56668;BME280;42542;48.360;10.958;2023-03-20T06:18:47;96447.97;;;8.03;94.13
56668;BME280;42542;48.360;10.958;2023-03-20T06:21:50;96451.16;;;8.07;94.06
56668;BME280;42542;48.360;10.958;2023-03-20T06:24:54;96451.88;;;8.09;93.61
56668;BME280;42542;48.360;10.958;2023-03-20T06:28:08;96448.38;;;8.08;93.71
56668;BME280;42542;48.360;10.958;2023-03-20T06:31:14;96453.41;;;8.11;93.72
56668;BME280;42542;48.360;10.958;2023-03-20T06:34:17;96450.75;;;8.11;93.32
56668;BME280;42542;48.360;10.958;2023-03-20T06:37:21;96455.09;;;8.12;92.85
56668;BME280;42542;48.360;10.958;2023-03-20T06:40:26;96458.44;;;8.14;93.13
56668;BME280;42542;48.360;10.958;2023-03-20T06:43:29;96458.19;;;8.17;92.95
56668;BME280;42542;48.360;10.958;2023-03-20T06:46:31;96457.19;;;8.18;93.08
56668;BME280;42542;48.360;10.958;2023-03-20T06:49:33;96462.53;;;8.18;93.63
56668;BME280;42542;48.360;10.958;2023-03-20T06:52:35;96455.38;;;8.19;93.26
56668;BME280;42542;48.360;10.958;2023-03-20T06:55:58;96465.31;;;8.27;93.07
56668;BME280;42542;48.360;10.958;2023-03-20T06:59:01;96465.75;;;8.32;92.97
56668;BME280;42542;48.360;10.958;2023-03-20T07:02:03;96471.66;;;8.35;93.54
56668;BME280;42542;48.360;10.958;2023-03-20T07:05:08;96467.44;;;8.42;92.86
56668;BME280;42542;48.360;10.958;2023-03-20T07:08:10;96469.09;;;8.43;92.21
56668;BME280;42542;48.360;10.958;2023-03-20T07:11:13;96482.72;;;8.50;92.54
56668;BME280;42542;48.360;10.958;2023-03-20T07:14:15;96478.06;;;8.52;92.35
56668;BME280;42542;48.360;10.958;2023-03-20T07:17:37;96469.66;;;8.56;92.34
56668;BME280;42542;48.360;10.958;2023-03-20T07:20:39;96482.53;;;8.61;91.87
56668;BME280;42542;48.360;10.958;2023-03-20T07:23:42;96483.09;;;8.65;92.27
56668;BME280;42542;48.360;10.958;2023-03-20T07:26:43;96483.66;;;8.68;92.41
56668;BME280;42542;48.360;10.958;2023-03-20T07:29:47;96483.50;;;8.70;91.83
56668;BME280;42542;48.360;10.958;2023-03-20T07:32:51;96484.75;;;8.75;91.92
56668;BME280;42542;48.360;10.958;2023-03-20T07:35:54;96494.69;;;8.83;91.86
56668;BME280;42542;48.360;10.958;2023-03-20T07:38:56;96491.91;;;8.84;91.76
56668;BME280;42542;48.360;10.958;2023-03-20T07:42:03;96496.06;;;8.87;91.95
56668;BME280;42542;48.360;10.958;2023-03-20T07:45:18;96502.22;;;8.97;91.42
56668;BME280;42542;48.360;10.958;2023-03-20T07:48:21;96504.44;;;9.01;91.45
56668;BME280;42542;48.360;10.958;2023-03-20T07:51:24;96502.88;;;9.09;91.83
56668;BME280;42542;48.360;10.958;2023-03-20T07:54:26;96498.66;;;9.16;90.98
56668;BME280;42542;48.360;10.958;2023-03-20T07:57:32;96497.25;;;9.21;90.42
56668;BME280;42542;48.360;10.958;2023-03-20T08:00:34;96485.84;;;9.29;90.19
56668;BME280;42542;48.360;10.958;2023-03-20T08:03:38;96487.91;;;9.35;89.67
56668;BME280;42542;48.360;10.958;2023-03-20T08:06:40;96486.47;;;9.40;89.18
56668;BME280;42542;48.360;10.958;2023-03-20T08:09:44;96479.69;;;9.46;88.91
56668;BME280;42542;48.360;10.958;2023-03-20T08:12:49;96476.16;;;9.55;89.12
56668;BME280;42542;48.360;10.958;2023-03-20T08:15:51;96473.47;;;9.55;88.84
56668;BME280;42542;48.360;10.958;2023-03-20T08:18:53;96475.41;;;9.63;88.09
56668;BME280;42542;48.360;10.958;2023-03-20T08:22:01;96476.47;;;9.70;86.24
56668;BME280;42542;48.360;10.958;2023-03-20T08:25:05;96479.84;;;9.72;84.89
56668;BME280;42542;48.360;10.958;2023-03-20T08:28:09;96472.50;;;9.74;83.55
56668;BME280;42542;48.360;10.958;2023-03-20T08:31:13;96482.75;;;9.78;84.78
56668;BME280;42542;48.360;10.958;2023-03-20T08:34:15;96484.81;;;9.85;84.25
56668;BME280;42542;48.360;10.958;2023-03-20T08:37:17;96478.03;;;9.90;82.12
56668;BME280;42542;48.360;10.958;2023-03-20T08:40:21;96477.56;;;9.95;82.41
56668;BME280;42542;48.360;10.958;2023-03-20T08:43:24;96478.41;;;9.95;80.66
56668;BME280;42542;48.360;10.958;2023-03-20T08:46:26;96474.97;;;10.03;81.18
56668;BME280;42542;48.360;10.958;2023-03-20T08:49:28;96485.03;;;10.09;81.04
56668;BME280;42542;48.360;10.958;2023-03-20T08:52:31;96482.78;;;10.14;81.22
56668;BME280;42542;48.360;10.958;2023-03-20T08:55:33;96487.97;;;10.15;80.30
56668;BME280;42542;48.360;10.958;2023-03-20T08:58:40;96498.75;;;10.24;80.77
56668;BME280;42542;48.360;10.958;2023-03-20T09:01:44;96500.00;;;10.29;81.03
56668;BME280;42542;48.360;10.958;2023-03-20T09:04:51;96491.78;;;10.31;79.40
56668;BME280;42542;48.360;10.958;2023-03-20T09:07:54;96495.31;;;10.31;78.70
56668;BME280;42542;48.360;10.958;2023-03-20T09:10:58;96498.53;;;10.35;79.37
56668;BME280;42542;48.360;10.958;2023-03-20T09:14:04;96501.06;;;10.36;78.62
56668;BME280;42542;48.360;10.958;2023-03-20T09:17:11;96500.06;;;10.37;78.05
56668;BME280;42542;48.360;10.958;2023-03-20T09:20:18;96496.53;;;10.37;78.32
56668;BME280;42542;48.360;10.958;2023-03-20T09:23:24;96490.59;;;10.43;77.51
56668;BME280;42542;48.360;10.958;2023-03-20T09:26:29;96495.78;;;10.44;77.67
56668;BME280;42542;48.360;10.958;2023-03-20T09:29:37;96491.09;;;10.46;77.23
56668;BME280;42542;48.360;10.958;2023-03-20T09:32:49;96495.59;;;10.46;75.42
56668;BME280;42542;48.360;10.958;2023-03-20T09:35:56;96487.44;;;10.47;76.42
56668;BME280;42542;48.360;10.958;2023-03-20T09:39:00;96490.94;;;10.48;75.80
56668;BME280;42542;48.360;10.958;2023-03-20T09:42:38;96480.72;;;10.43;75.81
56668;BME280;42542;48.360;10.958;2023-03-20T09:53:03;96487.28;;;10.49;75.22
56668;BME280;42542;48.360;10.958;2023-03-20T09:56:18;96479.75;;;10.44;74.35
56668;BME280;42542;48.360;10.958;2023-03-20T09:59:23;96479.97;;;10.51;74.53
56668;BME280;42542;48.360;10.958;2023-03-20T10:02:47;96477.81;;;10.54;74.04
56668;BME280;42542;48.360;10.958;2023-03-20T10:06:14;96477.66;;;10.56;73.52
56668;BME280;42542;48.360;10.958;2023-03-20T10:09:25;96475.50;;;10.60;73.54
56668;BME280;42542;48.360;10.958;2023-03-20T10:12:51;96477.19;;;10.61;72.59
56668;BME280;42542;48.360;10.958;2023-03-20T10:16:41;96476.34;;;10.60;71.75
56668;BME280;42542;48.360;10.958;2023-03-20T10:19:58;96473.50;;;10.62;72.10
56668;BME280;42542;48.360;10.958;2023-03-20T10:23:21;96469.22;;;10.69;72.91
56668;BME280;42542;48.360;10.958;2023-03-20T10:26:33;96475.47;;;10.77;72.60
56668;BME280;42542;48.360;10.958;2023-03-20T10:33:55;96466.66;;;10.85;71.74
56668;BME280;42542;48.360;10.958;2023-03-20T10:40:37;96459.59;;;11.02;71.72
56668;BME280;42542;48.360;10.958;2023-03-20T10:43:48;96444.59;;;11.17;73.11
56668;BME280;42542;48.360;10.958;2023-03-20T10:46:58;96448.47;;;11.22;68.96
56668;BME280;42542;48.360;10.958;2023-03-20T10:50:10;96451.34;;;11.29;69.95
56668;BME280;42542;48.360;10.958;2023-03-20T10:53:29;96451.84;;;11.32;68.21
56668;BME280;42542;48.360;10.958;2023-03-20T10:56:42;96445.19;;;11.37;69.08
56668;BME280;42542;48.360;10.958;2023-03-20T10:59:53;96446.06;;;11.45;69.63
56668;BME280;42542;48.360;10.958;2023-03-20T11:03:03;96447.41;;;11.49;69.58
56668;BME280;42542;48.360;10.958;2023-03-20T11:06:18;96445.75;;;11.48;68.77
56668;BME280;42542;48.360;10.958;2023-03-20T11:09:23;96443.06;;;11.48;67.95
56668;BME280;42542;48.360;10.958;2023-03-20T11:12:42;96445.91;;;11.47;67.35
56668;BME280;42542;48.360;10.958;2023-03-20T11:15:46;96440.72;;;11.45;67.84
56668;BME280;42542;48.360;10.958;2023-03-20T11:18:54;96444.44;;;11.52;68.34
56668;BME280;42542;48.360;10.958;2023-03-20T11:22:00;96444.94;;;11.56;68.86
56668;BME280;42542;48.360;10.958;2023-03-20T11:25:27;96435.91;;;11.57;67.74
56668;BME280;42542;48.360;10.958;2023-03-20T11:28:41;96442.78;;;11.59;67.89
56668;BME280;42542;48.360;10.958;2023-03-20T11:31:50;96452.66;;;11.59;66.71
56668;BME280;42542;48.360;10.958;2023-03-20T11:34:55;96455.78;;;11.54;65.92
56668;BME280;42542;48.360;10.958;2023-03-20T11:38:16;96454.94;;;11.54;65.01
56668;BME280;42542;48.360;10.958;2023-03-20T11:41:25;96452.47;;;11.52;65.03
56668;BME280;42542;48.360;10.958;2023-03-20T11:44:36;96448.41;;;11.48;65.15
56668;BME280;42542;48.360;10.958;2023-03-20T11:47:42;96451.59;;;11.44;65.67
56668;BME280;42542;48.360;10.958;2023-03-20T11:50:59;96448.75;;;11.45;65.23
56668;BME280;42542;48.360;10.958;2023-03-20T11:54:15;96445.53;;;11.42;64.78
56668;BME280;42542;48.360;10.958;2023-03-20T11:57:39;96444.56;;;11.43;63.14
56668;BME280;42542;48.360;10.958;2023-03-20T12:00:46;96440.53;;;11.47;64.33
56668;BME280;42542;48.360;10.958;2023-03-20T12:04:01;96442.91;;;11.50;62.33
56668;BME280;42542;48.360;10.958;2023-03-20T12:07:24;96444.09;;;11.55;61.54
56668;BME280;42542;48.360;10.958;2023-03-20T12:10:36;96436.59;;;11.59;60.88
56668;BME280;42542;48.360;10.958;2023-03-20T12:13:46;96438.59;;;11.65;62.16
56668;BME280;42542;48.360;10.958;2023-03-20T12:17:26;96435.47;;;11.78;60.48
56668;BME280;42542;48.360;10.958;2023-03-20T12:21:10;96437.69;;;11.90;61.04
56668;BME280;42542;48.360;10.958;2023-03-20T12:24:44;96444.06;;;11.97;60.18
56668;BME280;42542;48.360;10.958;2023-03-20T12:27:55;96436.69;;;11.99;59.77
56668;BME280;42542;48.360;10.958;2023-03-20T12:31:17;96435.00;;;11.98;59.71
56668;BME280;42542;48.360;10.958;2023-03-20T12:34:46;96423.47;;;11.98;59.29
56668;BME280;42542;48.360;10.958;2023-03-20T12:37:56;96422.63;;;11.97;58.29
56668;BME280;42542;48.360;10.958;2023-03-20T12:41:14;96428.13;;;11.96;58.16
56668;BME280;42542;48.360;10.958;2023-03-20T12:55:11;96429.00;;;12.04;57.18
56668;BME280;42542;48.360;10.958;2023-03-20T13:02:08;96430.84;;;12.04;57.62
56668;BME280;42542;48.360;10.958;2023-03-20T13:06:01;96425.81;;;12.01;56.64
56668;BME280;42542;48.360;10.958;2023-03-20T13:13:51;96419.44;;;11.94;57.03
56668;BME280;42542;48.360;10.958;2023-03-20T13:16:56;96415.25;;;11.91;57.91
56668;BME280;42542;48.360;10.958;2023-03-20T13:20:29;96411.06;;;11.89;58.25
56668;BME280;42542;48.360;10.958;2023-03-20T13:27:45;96420.59;;;11.83;59.59
56668;BME280;42542;48.360;10.958;2023-03-20T13:38:05;96419.19;;;11.71;61.29
56668;BME280;42542;48.360;10.958;2023-03-20T13:41:16;96427.28;;;11.79;61.38
56668;BME280;42542;48.360;10.958;2023-03-20T13:44:35;96415.75;;;11.79;61.79
56668;BME280;42542;48.360;10.958;2023-03-20T13:47:51;96414.59;;;11.81;61.92
56668;BME280;42542;48.360;10.958;2023-03-20T14:01:50;96408.56;;;11.87;62.38
56668;BME280;42542;48.360;10.958;2023-03-20T14:05:18;96402.22;;;11.88;62.31
56668;BME280;42542;48.360;10.958;2023-03-20T14:11:34;96402.88;;;11.98;61.32
56668;BME280;42542;48.360;10.958;2023-03-20T14:14:54;96400.88;;;12.00;61.61
56668;BME280;42542;48.360;10.958;2023-03-20T14:18:10;96400.88;;;12.00;61.10
56668;BME280;42542;48.360;10.958;2023-03-20T14:21:22;96403.72;;;11.99;61.35
56668;BME280;42542;48.360;10.958;2023-03-20T14:24:28;96395.19;;;11.95;60.73
56668;BME280;42542;48.360;10.958;2023-03-20T14:27:53;96396.66;;;11.90;60.29
56668;BME280;42542;48.360;10.958;2023-03-20T14:31:21;96395.50;;;11.92;60.85
56668;BME280;42542;48.360;10.958;2023-03-20T14:34:24;96395.34;;;12.18;60.62
56668;BME280;42542;48.360;10.958;2023-03-20T14:51:30;96369.13;;;13.63;56.10
56668;BME280;42542;48.360;10.958;2023-03-20T14:54:40;96375.28;;;13.72;54.69
56668;BME280;42542;48.360;10.958;2023-03-20T14:57:48;96372.19;;;13.60;54.32
56668;BME280;42542;48.360;10.958;2023-03-20T15:01:04;96375.06;;;13.50;53.17
56668;BME280;42542;48.360;10.958;2023-03-20T15:04:30;96365.41;;;13.33;54.09
56668;BME280;42542;48.360;10.958;2023-03-20T15:07:39;96365.16;;;13.12;53.97
56668;BME280;42542;48.360;10.958;2023-03-20T15:10:47;96354.97;;;12.99;53.71
56668;BME280;42542;48.360;10.958;2023-03-20T15:13:54;96352.97;;;13.01;55.17
56668;BME280;42542;48.360;10.958;2023-03-20T15:17:04;96366.66;;;13.22;54.68
56668;BME280;42542;48.360;10.958;2023-03-20T15:20:17;96353.06;;;13.55;53.88
56668;BME280;42542;48.360;10.958;2023-03-20T15:23:30;96355.03;;;13.84;52.84
56668;BME280;42542;48.360;10.958;2023-03-20T15:26:41;96355.22;;;14.05;52.70
56668;BME280;42542;48.360;10.958;2023-03-20T15:29:53;96354.56;;;14.26;50.51
56668;BME280;42542;48.360;10.958;2023-03-20T15:32:58;96349.25;;;14.40;51.51
56668;BME280;42542;48.360;10.958;2023-03-20T15:36:07;96337.94;;;14.45;50.26
56668;BME280;42542;48.360;10.958;2023-03-20T15:39:25;96336.84;;;14.54;50.21
56668;BME280;42542;48.360;10.958;2023-03-20T15:42:30;96323.78;;;14.66;49.40
56668;BME280;42542;48.360;10.958;2023-03-20T15:45:39;96325.81;;;14.78;48.58
56668;BME280;42542;48.360;10.958;2023-03-20T15:48:50;96319.25;;;14.81;48.69
56668;BME280;42542;48.360;10.958;2023-03-20T15:52:02;96321.00;;;14.89;48.93
56668;BME280;42542;48.360;10.958;2023-03-20T15:55:13;96316.28;;;14.91;48.97
56668;BME280;42542;48.360;10.958;2023-03-20T15:58:21;96323.44;;;14.83;48.04
56668;BME280;42542;48.360;10.958;2023-03-20T16:01:30;96322.59;;;14.68;48.19
56668;BME280;42542;48.360;10.958;2023-03-20T16:04:48;96319.31;;;14.58;49.12
56668;BME280;42542;48.360;10.958;2023-03-20T16:08:29;96330.63;;;14.39;48.81
56668;BME280;42542;48.360;10.958;2023-03-20T16:11:48;96328.84;;;14.08;49.16
56668;BME280;42542;48.360;10.958;2023-03-20T16:14:55;96341.88;;;13.97;49.64
56668;BME280;42542;48.360;10.958;2023-03-20T16:18:01;96333.44;;;13.77;48.20
56668;BME280;42542;48.360;10.958;2023-03-20T16:21:21;96337.97;;;13.54;48.07
56668;BME280;42542;48.360;10.958;2023-03-20T16:24:36;96340.78;;;13.29;48.13
56668;BME280;42542;48.360;10.958;2023-03-20T16:27:43;96345.06;;;13.16;48.85
56668;BME280;42542;48.360;10.958;2023-03-20T16:31:02;96340.56;;;13.00;49.07
56668;BME280;42542;48.360;10.958;2023-03-20T16:34:22;96338.91;;;12.91;49.50
56668;BME280;42542;48.360;10.958;2023-03-20T16:37:30;96333.56;;;12.83;49.77
56668;BME280;42542;48.360;10.958;2023-03-20T16:40:35;96336.63;;;12.72;49.54
56668;BME280;42542;48.360;10.958;2023-03-20T16:43:45;96339.50;;;12.62;49.79
56668;BME280;42542;48.360;10.958;2023-03-20T16:47:20;96342.88;;;12.48;49.95
56668;BME280;42542;48.360;10.958;2023-03-20T16:50:39;96336.53;;;12.33;50.37
56668;BME280;42542;48.360;10.958;2023-03-20T16:53:47;96338.41;;;12.24;50.76
56668;BME280;42542;48.360;10.958;2023-03-20T16:56:54;96342.09;;;12.15;51.16
56668;BME280;42542;48.360;10.958;2023-03-20T17:00:04;96342.09;;;12.07;51.43
56668;BME280;42542;48.360;10.958;2023-03-20T17:03:14;96339.94;;;12.02;51.63
56668;BME280;42542;48.360;10.958;2023-03-20T17:09:29;96351.97;;;11.90;52.02
56668;BME280;42542;48.360;10.958;2023-03-20T17:12:40;96346.28;;;11.85;53.03
56668;BME280;42542;48.360;10.958;2023-03-20T17:15:51;96353.16;;;11.80;53.13
56668;BME280;42542;48.360;10.958;2023-03-20T17:19:00;96352.09;;;11.72;53.10
56668;BME280;42542;48.360;10.958;2023-03-20T17:22:14;96343.53;;;11.69;53.99
56668;BME280;42542;48.360;10.958;2023-03-20T17:25:25;96342.53;;;11.62;54.43
56668;BME280;42542;48.360;10.958;2023-03-20T17:28:34;96345.88;;;11.56;54.31
56668;BME280;42542;48.360;10.958;2023-03-20T17:31:39;96343.19;;;11.48;55.25
56668;BME280;42542;48.360;10.958;2023-03-20T17:34:48;96346.34;;;11.43;56.15
56668;BME280;42542;48.360;10.958;2023-03-20T17:37:55;96347.19;;;11.35;56.49
56668;BME280;42542;48.360;10.958;2023-03-20T17:41:18;96348.00;;;11.28;56.98
56668;BME280;42542;48.360;10.958;2023-03-20T17:44:25;96345.97;;;11.22;57.19
56668;BME280;42542;48.360;10.958;2023-03-20T17:47:28;96344.59;;;11.18;56.81
56668;BME280;42542;48.360;10.958;2023-03-20T17:50:32;96346.25;;;11.11;57.97
56668;BME280;42542;48.360;10.958;2023-03-20T17:53:36;96352.78;;;11.08;58.46
56668;BME280;42542;48.360;10.958;2023-03-20T17:56:38;96353.25;;;11.04;58.45
56668;BME280;42542;48.360;10.958;2023-03-20T17:59:42;96360.78;;;11.00;58.90
56668;BME280;42542;48.360;10.958;2023-03-20T18:02:45;96353.22;;;10.95;59.36
56668;BME280;42542;48.360;10.958;2023-03-20T18:05:49;96356.53;;;10.89;60.14
56668;BME280;42542;48.360;10.958;2023-03-20T18:08:57;96360.84;;;10.82;60.74
56668;BME280;42542;48.360;10.958;2023-03-20T18:12:03;96366.00;;;10.76;60.89
56668;BME280;42542;48.360;10.958;2023-03-20T18:15:09;96371.28;;;10.68;61.92
56668;BME280;42542;48.360;10.958;2023-03-20T18:18:11;96361.88;;;10.55;62.15
56668;BME280;42542;48.360;10.958;2023-03-20T18:21:15;96358.16;;;10.48;62.93
56668;BME280;42542;48.360;10.958;2023-03-20T18:24:25;96368.78;;;10.40;63.70
56668;BME280;42542;48.360;10.958;2023-03-20T18:27:31;96366.22;;;10.31;63.49
56668;BME280;42542;48.360;10.958;2023-03-20T18:30:39;96366.84;;;10.25;64.30
56668;BME280;42542;48.360;10.958;2023-03-20T18:33:45;96370.59;;;10.14;64.61
56668;BME280;42542;48.360;10.958;2023-03-20T18:36:47;96372.22;;;10.07;65.09
56668;BME280;42542;48.360;10.958;2023-03-20T18:39:50;96373.97;;;9.98;65.50
56668;BME280;42542;48.360;10.958;2023-03-20T18:43:00;96373.19;;;9.88;65.95
56668;BME280;42542;48.360;10.958;2023-03-20T18:46:08;96372.47;;;9.78;66.38
56668;BME280;42542;48.360;10.958;2023-03-20T18:49:18;96378.72;;;9.69;67.22
56668;BME280;42542;48.360;10.958;2023-03-20T18:52:22;96378.63;;;9.61;67.63